Weerspreuk van de dag: oveel nevel in maart, zoveel onweer s' zomers.
Het weer levert geen direct gevaar op.    Er zijn geen waarschuwingen afgegeven.


Onweer radar Meer informatie blitzortung!


Regen radar Meer informatie rain snow radar


Bekijk deze sites ook eens:

FPL Automotive (TIP)

Autostekkers.nl (TIP)

Over Luyksgestel

De Kempen, mijn omgeving

BOL.com

Weerstation Noordbergum

Inktweb

Weerstation Hapert

Parfumswinkel TIP

Weerstation Hoogeloon

Weerstation Son&Breugel

Weerstation Castaert

Smartphonehoesjes

Weerstation Tilburg Reeshof

Weerstation Scheulder

Weerverwachting Samos

Samos actueel

Weerwoord (forum)

Griekenlandforum

Vakantie naar Samos

Winterzon

Canon

Lampen koopjeshoek

Wolven in Nederland



METAR rapporten vliegvelden

   
EBAW - Antwerp
Gewijzigd: 21-03-2019 00:20
Helder  
Helder  
   Wind: Zuiden 1.9 km/h
Wind: Zuiden 1.9 km/h
Temperatuur: 8°C
Dauwpunt: 8°C
Vochtigheid: 100%
Barometer: 1034 hPa
Bewolking: Helder
Zicht: 6 km
Bewolking: Helder
EBAW 202320Z AUTO 18001KT 6000 // NCD 08/08 Q1034
EBLG - Liège
Gewijzigd: 21-03-2019 00:20
Helder  
Helder  
   Wind: Zuiden 7.4 km/h
Wind: Zuiden 7.4 km/h
Temperatuur: 8°C
Voelt als: 7°C
Dauwpunt: 5°C
Vochtigheid: 82%
Barometer: 1034 hPa
Zicht: meer dan 10 km
Bewolking: Helder
EBLG 202320Z 17004KT 130V210 CAVOK 08/05 Q1034 NOSIG
EBCV - Mons/Bergen
Gewijzigd: 21-03-2019 00:25
Helder  
Helder  
   Wind: varieert 1.9 km/h
Wind: varieert 1.9 km/h
Temperatuur: 6°C
Dauwpunt: 5°C
Vochtigheid: 93%
Barometer: 1035 hPa
Bewolking: Helder
Zicht: 6 km
Bewolking: Helder
EBCV 202325Z AUTO VRB01KT 6000 NCD 06/05 Q1035 WHT
EHBK - Maastricht
Gewijzigd: 21-03-2019 00:25
Gedeeltelijk bewolkt  
Gedeeltelijk bewolkt  
   Wind: Zuiden 7.4 km/h
Wind: Zuiden 7.4 km/h
Temperatuur: 6°C
Voelt als: 4°C
Dauwpunt: 5°C
Vochtigheid: 93%
Barometer: 1034 hPa
Bewolking: Gedeeltelijk bewolkt
Zicht: meer dan 10 km
Bewolking: Gedeeltelijk bewolkt
EHBK 202325Z AUTO 18004KT 9999 NSC 06/05 Q1034
ELLX - Luxemburg
Gewijzigd: 21-03-2019 00:20
Helder  
Helder  
   Wind: NO 9.3 km/h
Wind: NO 9.3 km/h
Temperatuur: 7°C
Voelt als: 5°C
Dauwpunt: 1°C
Vochtigheid: 66%
Barometer: 1034 hPa
Bewolking: Helder
Zicht: meer dan 10 km
Bewolking: Helder
ELLX 202320Z AUTO 04005KT 9999 NCD 07/01 Q1034 NOSIG
EBOS - Oostende
Gewijzigd: 21-03-2019 00:20
Shallow Fog, Gedeeltelijk bewolkt  
Shallow Fog, Gedeeltelijk bewolkt  
   Wind: ZZW 5.6 km/h
Wind: ZZW 5.6 km/h
Temperatuur: 6°C
Voelt als: 5°C
Dauwpunt: 4°C
Vochtigheid: 87%
Barometer: 1035 hPa
Bewolking: Gedeeltelijk bewolkt
Zicht: 7 km
Bewolking: Gedeeltelijk bewolkt
EBOS 202320Z 20003KT 7000 MIFG NSC 06/04 Q1035 NOSIG

Script ontwikkeld door  Saratoga-weather.org Aangepast voor de template door  Weerstation Leuven

U vindt ons ook hier:

Het Weer Aktueel

UK Metoffice

European Weather Network

Weather Underground

AWEKAS



Lekker winkelen zonder zorgen - Gratis verzending en retour